^^
Saratoga-Weather Station Historical Data
Daily Summary for January 26, 2022 Units:  Metric    English   Both
Daily Weekly Monthly Yearly Custom
  High: Low: Average:
Temperature: 0.4 °C -1.3 °C -0.7 °C
Dew Point: -0.6 °C -1.7 °C -1.2 °C
Humidity: 97% 93% 96%
Wind Speed: 11.1km/h 0km/h 3.2km/h
Wind Gust: 14.5km/h - -
Wind- - West
Pressure: 1034.2 hPa 1032.2 hPa -
Precipitation: 0.0 mm    
Historical Graphs
 
 
Tabular Data for January 26, 2022
Time Temperature Dew Point Pressure Wind Wind Speed Wind Gust Humidity Rainfall Rate (Hourly) solar
00:03 -1.1 °C -1.5 °C 1032.8 hPa West 3.2 km/h 3.2 km/h 97% 0.0 mm 0 W/m2
00:08 -1 °C -1.4 °C 1032.8 hPa West 1.4 km/h 4.8 km/h 97% 0.0 mm 0 W/m2
00:13 -1 °C -1.4 °C 1032.8 hPa Calm   4.8 km/h 97% 0.0 mm 0 W/m2
00:18 -1 °C -1.4 °C 1032.8 hPa Calm   1.6 km/h 97% 0.0 mm 0 W/m2
00:23 -1 °C -1.4 °C 1032.8 hPa Calm     97% 0.0 mm 0 W/m2
00:28 -1 °C -1.4 °C 1032.8 hPa WNW 1.4 km/h 4.8 km/h 97% 0.0 mm 0 W/m2
00:33 -1 °C -1.4 °C 1032.8 hPa WNW 1.4 km/h 3.2 km/h 97% 0.0 mm 0 W/m2
00:38 -1 °C -1.4 °C 1032.8 hPa WNW 1.4 km/h 4.8 km/h 97% 0.0 mm 0 W/m2
00:43 -1.1 °C -1.5 °C 1032.8 hPa WNW 1.4 km/h 4.8 km/h 97% 0.0 mm 0 W/m2
00:48 -1.1 °C -1.5 °C 1032.8 hPa Calm   3.2 km/h 97% 0.0 mm 0 W/m2
00:53 -1.1 °C -1.5 °C 1032.8 hPa West 1.4 km/h 6.4 km/h 97% 0.0 mm 0 W/m2
00:58 -1.1 °C -1.5 °C 1032.8 hPa Calm   1.6 km/h 97% 0.0 mm 0 W/m2
01:03 -1.2 °C -1.6 °C 1032.8 hPa Calm     97% 0.0 mm 0 W/m2
01:08 -1.2 °C -1.6 °C 1032.8 hPa West 6.4 km/h 6.4 km/h 97% 0.0 mm 0 W/m2
01:13 -1.2 °C -1.6 °C 1032.8 hPa WNW 1.4 km/h 4.8 km/h 97% 0.0 mm 0 W/m2
01:18 -1.2 °C -1.6 °C 1032.8 hPa Calm   3.2 km/h 97% 0.0 mm 0 W/m2
01:23 -1.2 °C -1.6 °C 1032.8 hPa Calm   1.6 km/h 97% 0.0 mm 0 W/m2
01:28 -1.2 °C -1.6 °C 1032.8 hPa Calm   1.6 km/h 97% 0.0 mm 0 W/m2
01:33 -1.2 °C -1.6 °C 1032.8 hPa Calm     97% 0.0 mm 0 W/m2
01:38 -1.2 °C -1.6 °C 1032.8 hPa Calm   3.2 km/h 97% 0.0 mm 0 W/m2
01:43 -1.2 °C -1.6 °C 1032.8 hPa Calm   3.2 km/h 97% 0.0 mm 0 W/m2
01:48 -1.2 °C -1.6 °C 1033.2 hPa Calm   3.2 km/h 97% 0.0 mm 0 W/m2
01:53 -1.2 °C -1.6 °C 1032.8 hPa NW 1.4 km/h 3.2 km/h 97% 0.0 mm 0 W/m2
01:58 -1.2 °C -1.6 °C 1032.8 hPa WNW 3.2 km/h 4.8 km/h 97% 0.0 mm 0 W/m2
02:03 -1.1 °C -1.5 °C 1032.8 hPa Calm   3.2 km/h 97% 0.0 mm 0 W/m2
02:08 -1.2 °C -1.6 °C 1032.8 hPa West 3.2 km/h 4.8 km/h 97% 0.0 mm 0 W/m2
02:13 -1.2 °C -1.6 °C 1033.2 hPa SW 1.4 km/h 4.8 km/h 97% 0.0 mm 0 W/m2
02:18 -1.2 °C -1.6 °C 1033.2 hPa WNW 7.9 km/h 8 km/h 97% 0.0 mm 0 W/m2
02:23 -1.3 °C -1.7 °C 1033.2 hPa WNW 4.7 km/h 8 km/h 97% 0.0 mm 0 W/m2
02:28 -1.3 °C -1.7 °C 1033.2 hPa West 4.7 km/h 6.4 km/h 97% 0.0 mm 0 W/m2
02:33 -1.3 °C -1.7 °C 1033.2 hPa West 1.4 km/h 8 km/h 97% 0.0 mm 0 W/m2
02:38 -1.3 °C -1.7 °C 1033.2 hPa NW 1.4 km/h 4.8 km/h 97% 0.0 mm 0 W/m2
02:43 -1.2 °C -1.6 °C 1033.2 hPa WNW 3.2 km/h 6.4 km/h 97% 0.0 mm 0 W/m2
02:48 -1.2 °C -1.6 °C 1033.2 hPa WSW 3.2 km/h 9.7 km/h 97% 0.0 mm 0 W/m2
02:54 -1.3 °C -1.7 °C 1033.2 hPa WNW 4.7 km/h 9.7 km/h 97% 0.0 mm 0 W/m2
02:59 -1.3 °C -1.7 °C 1033.2 hPa NW 3.2 km/h 3.2 km/h 97% 0.0 mm 0 W/m2
03:04 -1.2 °C -1.6 °C 1033.2 hPa West 3.2 km/h 4.8 km/h 97% 0.0 mm 0 W/m2
03:09 -1.3 °C -1.7 °C 1033.2 hPa WSW 1.4 km/h 9.7 km/h 97% 0.0 mm 0 W/m2
03:14 -1.3 °C -1.7 °C 1032.8 hPa West 1.4 km/h 4.8 km/h 97% 0.0 mm 0 W/m2
03:19 -1.3 °C -1.7 °C 1032.8 hPa West 1.4 km/h 6.4 km/h 97% 0.0 mm 0 W/m2
03:24 -1.3 °C -1.7 °C 1032.8 hPa Calm   4.8 km/h 97% 0.0 mm 0 W/m2
03:29 -1.3 °C -1.7 °C 1032.8 hPa West 3.2 km/h 4.8 km/h 97% 0.0 mm 0 W/m2
03:34 -1.3 °C -1.7 °C 1032.8 hPa Calm   3.2 km/h 97% 0.0 mm 0 W/m2
03:39 -1.3 °C -1.7 °C 1032.8 hPa Calm   3.2 km/h 97% 0.0 mm 0 W/m2
03:44 -1.2 °C -1.6 °C 1032.8 hPa West 1.4 km/h 1.6 km/h 97% 0.0 mm 0 W/m2
03:49 -1.2 °C -1.6 °C 1032.8 hPa Calm   3.2 km/h 97% 0.0 mm 0 W/m2
03:54 -1.1 °C -1.5 °C 1032.8 hPa West 1.4 km/h 4.8 km/h 97% 0.0 mm 0 W/m2
03:59 -1.1 °C -1.5 °C 1032.8 hPa West 3.2 km/h 3.2 km/h 97% 0.0 mm 0 W/m2
04:04 -1 °C -1.4 °C 1032.8 hPa Calm   4.8 km/h 97% 0.0 mm 0 W/m2
04:09 -0.9 °C -1.3 °C 1032.8 hPa Calm   4.8 km/h 97% 0.0 mm 0 W/m2
04:14 -0.9 °C -1.3 °C 1032.8 hPa West 3.2 km/h 4.8 km/h 97% 0.0 mm 0 W/m2
04:19 -0.9 °C -1.3 °C 1032.8 hPa Calm     97% 0.0 mm 0 W/m2
04:24 -0.8 °C -1.2 °C 1032.5 hPa Calm   4.8 km/h 97% 0.0 mm 0 W/m2
04:29 -0.8 °C -1.2 °C 1032.5 hPa Calm     97% 0.0 mm 0 W/m2
04:34 -0.8 °C -1.2 °C 1032.8 hPa NE 3.2 km/h 4.8 km/h 97% 0.0 mm 0 W/m2
04:39 -0.8 °C -1.2 °C 1032.8 hPa NE 3.2 km/h 4.8 km/h 97% 0.0 mm 0 W/m2
04:44 -0.8 °C -1.2 °C 1032.8 hPa NE 4.7 km/h 4.8 km/h 97% 0.0 mm 0 W/m2
04:49 -0.9 °C -1.3 °C 1032.8 hPa Calm   1.6 km/h 97% 0.0 mm 0 W/m2
04:54 -0.9 °C -1.3 °C 1032.8 hPa East 3.2 km/h 4.8 km/h 97% 0.0 mm 0 W/m2
04:59 -0.9 °C -1.3 °C 1032.8 hPa East 1.4 km/h 3.2 km/h 97% 0.0 mm 0 W/m2
05:04 -0.9 °C -1.3 °C 1032.5 hPa Calm   3.2 km/h 97% 0.0 mm 0 W/m2
05:09 -0.9 °C -1.3 °C 1032.8 hPa Calm   1.6 km/h 97% 0.0 mm 0 W/m2
05:14 -0.9 °C -1.3 °C 1032.8 hPa Calm   3.2 km/h 97% 0.0 mm 0 W/m2
05:19 -0.9 °C -1.3 °C 1032.8 hPa Calm     97% 0.0 mm 0 W/m2
05:24 -0.9 °C -1.3 °C 1032.8 hPa Calm     97% 0.0 mm 0 W/m2
05:29 -0.9 °C -1.3 °C 1032.8 hPa Calm     97% 0.0 mm 0 W/m2
05:34 -0.9 °C -1.3 °C 1032.8 hPa Calm   3.2 km/h 97% 0.0 mm 0 W/m2
05:39 -0.9 °C -1.3 °C 1032.8 hPa East 1.4 km/h 3.2 km/h 97% 0.0 mm 0 W/m2
05:44 -0.9 °C -1.3 °C 1032.8 hPa East 3.2 km/h 4.8 km/h 97% 0.0 mm 0 W/m2
05:49 -0.9 °C -1.3 °C 1032.8 hPa East 1.4 km/h 3.2 km/h 97% 0.0 mm 0 W/m2
05:54 -0.9 °C -1.3 °C 1032.8 hPa East 1.4 km/h 4.8 km/h 97% 0.0 mm 0 W/m2
05:59 -0.9 °C -1.3 °C 1032.8 hPa East 1.4 km/h 3.2 km/h 97% 0.0 mm 0 W/m2
06:04 -0.8 °C -1.2 °C 1032.8 hPa Calm   1.6 km/h 97% 0.0 mm 0 W/m2
06:09 -0.8 °C -1.2 °C 1032.8 hPa Calm   3.2 km/h 97% 0.0 mm 0 W/m2
06:14 -0.8 °C -1.2 °C 1032.8 hPa Calm   1.6 km/h 97% 0.0 mm 0 W/m2
06:19 -0.8 °C -1.2 °C 1032.8 hPa East 1.4 km/h 3.2 km/h 97% 0.0 mm 0 W/m2
06:24 -0.8 °C -1.2 °C 1032.8 hPa Calm   1.6 km/h 97% 0.0 mm 0 W/m2
06:29 -0.8 °C -1.2 °C 1032.5 hPa East 1.4 km/h 3.2 km/h 97% 0.0 mm 0 W/m2
06:34 -0.8 °C -1.2 °C 1032.5 hPa Calm     97% 0.0 mm 0 W/m2
06:39 -0.8 °C -1.2 °C 1032.5 hPa Calm   3.2 km/h 97% 0.0 mm 0 W/m2
06:44 -0.7 °C -1.1 °C 1032.2 hPa Calm   1.6 km/h 97% 0.0 mm 0 W/m2
06:49 -0.7 °C -1.1 °C 1032.5 hPa SSE 1.4 km/h 4.8 km/h 97% 0.0 mm 0 W/m2
06:54 -0.7 °C -1.1 °C 1032.5 hPa WNW 1.4 km/h 4.8 km/h 97% 0.0 mm 0 W/m2
06:59 -0.6 °C -1 °C 1032.8 hPa West 3.2 km/h 4.8 km/h 97% 0.0 mm 0 W/m2
07:04 -0.6 °C -1 °C 1032.5 hPa West 1.4 km/h 4.8 km/h 97% 0.0 mm 0 W/m2
07:09 -0.6 °C -1 °C 1032.8 hPa NW 4.7 km/h 9.7 km/h 97% 0.0 mm 0 W/m2
07:14 -0.7 °C -1.1 °C 1032.8 hPa WSW 4.7 km/h 9.7 km/h 97% 0.0 mm 0 W/m2
07:19 -0.7 °C -1.1 °C 1032.8 hPa WNW 1.4 km/h 3.2 km/h 97% 0.0 mm 0 W/m2
07:24 -0.7 °C -1.1 °C 1032.5 hPa WNW 3.2 km/h 6.4 km/h 97% 0.0 mm 0 W/m2
07:29 -0.7 °C -1.1 °C 1032.8 hPa NW 6.4 km/h 9.7 km/h 97% 0.0 mm 0 W/m2
07:34 -0.7 °C -1.1 °C 1032.8 hPa West 3.2 km/h 6.4 km/h 97% 0.0 mm 0 W/m2
07:39 -0.7 °C -1.1 °C 1032.5 hPa West 3.2 km/h 4.8 km/h 97% 0.0 mm 0 W/m2
07:44 -0.7 °C -1.1 °C 1032.8 hPa WNW 3.2 km/h 6.4 km/h 97% 0.0 mm 0 W/m2
07:49 -0.7 °C -1.1 °C 1033.2 hPa West 3.2 km/h 11.3 km/h 97% 0.0 mm 0 W/m2
07:54 -0.7 °C -1.1 °C 1033.2 hPa WNW 3.2 km/h 8 km/h 97% 0.0 mm 0 W/m2
07:59 -0.7 °C -1.1 °C 1033.2 hPa West 3.2 km/h 9.7 km/h 97% 0.0 mm 0 W/m2
08:04 -0.7 °C -1.1 °C 1033.5 hPa WNW 1.4 km/h 6.4 km/h 97% 0.0 mm 0 W/m2
08:09 -0.7 °C -1.1 °C 1033.2 hPa WNW 3.2 km/h 8 km/h 97% 0.0 mm 0 W/m2
08:14 -0.7 °C -1.1 °C 1033.5 hPa NW 6.4 km/h 9.7 km/h 97% 0.0 mm 0 W/m2
08:19 -0.7 °C -1.1 °C 1033.5 hPa WSW 4.7 km/h 9.7 km/h 97% 0.0 mm 0 W/m2
08:24 -0.8 °C -1.2 °C 1033.5 hPa WNW 6.4 km/h 6.4 km/h 97% 0.0 mm 0 W/m2
08:29 -0.8 °C -1.2 °C 1033.5 hPa WSW 6.4 km/h 9.7 km/h 97% 0.0 mm 0 W/m2
08:34 -0.8 °C -1.2 °C 1033.5 hPa WSW 4.7 km/h 9.7 km/h 97% 0.0 mm 0 W/m2
08:39 -0.8 °C -1.2 °C 1033.5 hPa West 1.4 km/h 9.7 km/h 97% 0.0 mm 0 W/m2
08:44 -0.8 °C -1.2 °C 1033.5 hPa West 4.7 km/h 9.7 km/h 97% 0.0 mm 5 W/m2
08:49 -0.8 °C -1.2 °C 1033.5 hPa West 6.4 km/h 12.9 km/h 97% 0.0 mm 5 W/m2
08:54 -0.8 °C -1.2 °C 1033.5 hPa West 4.7 km/h 11.3 km/h 97% 0.0 mm 7 W/m2
08:59 -0.8 °C -1.2 °C 1033.9 hPa WSW 4.7 km/h 9.7 km/h 97% 0.0 mm 7 W/m2
09:04 -0.7 °C -1.3 °C 1033.9 hPa NW 7.9 km/h 9.7 km/h 96% 0.0 mm 9 W/m2
09:09 -0.7 °C -1.3 °C 1033.5 hPa NW 7.9 km/h 8 km/h 96% 0.0 mm 11 W/m2
09:14 -0.7 °C -1.3 °C 1033.5 hPa WSW 1.4 km/h 6.4 km/h 96% 0.0 mm 9 W/m2
09:19 -0.7 °C -1.3 °C 1033.5 hPa West 1.4 km/h 3.2 km/h 96% 0.0 mm 11 W/m2
09:24 -0.7 °C -1.3 °C 1032.8 hPa West 1.4 km/h 3.2 km/h 96% 0.0 mm 18 W/m2
09:29 -0.7 °C -1.1 °C 1033.2 hPa NW 4.7 km/h 4.8 km/h 97% 0.0 mm 18 W/m2
09:34 -0.7 °C -1.1 °C 1033.5 hPa WNW 1.4 km/h 3.2 km/h 97% 0.0 mm 18 W/m2
09:39 -0.7 °C -1.1 °C 1033.5 hPa Calm   3.2 km/h 97% 0.0 mm 21 W/m2
09:44 -0.7 °C -1.3 °C 1033.9 hPa West 1.4 km/h 6.4 km/h 96% 0.0 mm 19 W/m2
09:49 -0.8 °C -1.4 °C 1033.2 hPa West 3.2 km/h 6.4 km/h 96% 0.0 mm 21 W/m2
09:54 -0.8 °C -1.4 °C 1033.5 hPa WNW 3.2 km/h 4.8 km/h 96% 0.0 mm 23 W/m2
09:59 -0.8 °C -1.4 °C 1033.2 hPa NNW 3.2 km/h 6.4 km/h 96% 0.0 mm 25 W/m2
10:04 -0.8 °C -1.4 °C 1033.5 hPa WNW 4.7 km/h 8 km/h 96% 0.0 mm 25 W/m2
10:09 -0.8 °C -1.4 °C 1033.5 hPa West 3.2 km/h 9.7 km/h 96% 0.0 mm 23 W/m2
10:14 -0.8 °C -1.4 °C 1033.5 hPa WNW 1.4 km/h 4.8 km/h 96% 0.0 mm 25 W/m2
10:19 -0.8 °C -1.4 °C 1033.5 hPa West 4.7 km/h 8 km/h 96% 0.0 mm 25 W/m2
10:24 -0.8 °C -1.4 °C 1033.5 hPa West 1.4 km/h 6.4 km/h 96% 0.0 mm 26 W/m2
10:29 -0.8 °C -1.4 °C 1033.5 hPa WSW 6.4 km/h 8 km/h 96% 0.0 mm 28 W/m2
10:34 -0.8 °C -1.4 °C 1033.9 hPa West 9.7 km/h 9.7 km/h 96% 0.0 mm 30 W/m2
10:39 -0.8 °C -1.4 °C 1033.9 hPa WNW 3.2 km/h 4.8 km/h 96% 0.0 mm 28 W/m2
10:44 -0.8 °C -1.4 °C 1033.9 hPa WSW 4.7 km/h 9.7 km/h 96% 0.0 mm 32 W/m2
10:49 -0.9 °C -1.5 °C 1034.2 hPa NW 4.7 km/h 9.7 km/h 96% 0.0 mm 28 W/m2
10:54 -0.8 °C -1.4 °C 1034.2 hPa WNW 4.7 km/h 8 km/h 96% 0.0 mm 33 W/m2
11:00 -0.8 °C -1.4 °C 1033.9 hPa WSW 7.9 km/h 12.9 km/h 96% 0.0 mm 32 W/m2
11:05 -0.8 °C -1.4 °C 1033.9 hPa West 4.7 km/h 12.9 km/h 96% 0.0 mm 33 W/m2
11:10 -0.9 °C -1.5 °C 1033.9 hPa West 6.4 km/h 12.9 km/h 96% 0.0 mm 37 W/m2
11:15 -0.8 °C -1.4 °C 1033.9 hPa WNW 11.1 km/h 12.9 km/h 96% 0.0 mm 35 W/m2
11:20 -0.8 °C -1.5 °C 1033.9 hPa WNW 1.4 km/h 14.5 km/h 95% 0.0 mm 44 W/m2
11:25 -0.8 °C -1.5 °C 1034.2 hPa WNW 7.9 km/h 11.3 km/h 95% 0.0 mm 42 W/m2
11:30 -0.8 °C -1.5 °C 1034.2 hPa WSW 3.2 km/h 8 km/h 95% 0.0 mm 35 W/m2
11:35 -0.7 °C -1.4 °C 1034.2 hPa WSW 6.4 km/h 11.3 km/h 95% 0.0 mm 33 W/m2
11:40 -0.7 °C -1.4 °C 1034.2 hPa NW 4.7 km/h 11.3 km/h 95% 0.0 mm 32 W/m2
11:45 -0.7 °C -1.4 °C 1033.9 hPa WSW 4.7 km/h 9.7 km/h 95% 0.0 mm 35 W/m2
11:50 -0.7 °C -1.4 °C 1033.9 hPa West 3.2 km/h 9.7 km/h 95% 0.0 mm 47 W/m2
11:55 -0.7 °C -1.4 °C 1033.9 hPa WNW 4.7 km/h 6.4 km/h 95% 0.0 mm 47 W/m2
12:00 -0.7 °C -1.4 °C 1033.9 hPa WSW 4.7 km/h 12.9 km/h 95% 0.0 mm 54 W/m2
12:05 -0.7 °C -1.4 °C 1033.9 hPa NW 7.9 km/h 11.3 km/h 95% 0.0 mm 51 W/m2
12:10 -0.6 °C -1.3 °C 1033.9 hPa West 6.4 km/h 9.7 km/h 95% 0.0 mm 46 W/m2
12:15 -0.5 °C -1.2 °C 1033.9 hPa WNW 7.9 km/h 9.7 km/h 95% 0.0 mm 53 W/m2
12:20 -0.5 °C -1.2 °C 1033.9 hPa West 6.4 km/h 9.7 km/h 95% 0.0 mm 54 W/m2
12:25 -0.4 °C -1.1 °C 1033.9 hPa WNW 3.2 km/h 12.9 km/h 95% 0.0 mm 54 W/m2
12:30 -0.4 °C -1.1 °C 1033.9 hPa WNW 3.2 km/h 8 km/h 95% 0.0 mm 54 W/m2
12:35 -0.4 °C -1.1 °C 1033.9 hPa West 9.7 km/h 11.3 km/h 95% 0.0 mm 54 W/m2
12:40 -0.3 °C -1 °C 1033.9 hPa West 9.7 km/h 12.9 km/h 95% 0.0 mm 58 W/m2
12:45 -0.3 °C -1.1 °C 1033.9 hPa WSW 7.9 km/h 11.3 km/h 94% 0.0 mm 62 W/m2
12:50 -0.2 °C -1 °C 1033.5 hPa West 6.4 km/h 12.9 km/h 94% 0.0 mm 63 W/m2
12:55 -0.2 °C -1 °C 1033.5 hPa West 4.7 km/h 4.8 km/h 94% 0.0 mm 65 W/m2
13:00 -0.1 °C -0.9 °C 1033.5 hPa West 4.7 km/h 9.7 km/h 94% 0.0 mm 56 W/m2
13:05 -0.1 °C -0.9 °C 1033.5 hPa West 4.7 km/h 9.7 km/h 94% 0.0 mm 60 W/m2
13:10 -0.1 °C -0.9 °C 1033.5 hPa SW 9.7 km/h 12.9 km/h 94% 0.0 mm 53 W/m2
13:15 -0.1 °C -0.9 °C 1033.5 hPa WSW 6.4 km/h 6.4 km/h 94% 0.0 mm 51 W/m2
13:20 0 °C -0.8 °C 1033.5 hPa WNW 4.7 km/h 12.9 km/h 94% 0.0 mm 51 W/m2
13:25 0 °C -0.8 °C 1033.5 hPa NW 6.4 km/h 6.4 km/h 94% 0.0 mm 44 W/m2
13:30 0 °C -0.8 °C 1033.5 hPa West 4.7 km/h 11.3 km/h 94% 0.0 mm 47 W/m2
13:35 0 °C -0.8 °C 1033.2 hPa WNW 4.7 km/h 4.8 km/h 94% 0.0 mm 46 W/m2
13:40 0 °C -0.8 °C 1033.5 hPa West 6.4 km/h 8 km/h 94% 0.0 mm 47 W/m2
13:45 0.1 °C -0.8 °C 1033.5 hPa NW 3.2 km/h 6.4 km/h 94% 0.0 mm 46 W/m2
13:50 0.1 °C -0.8 °C 1033.5 hPa West 3.2 km/h 9.7 km/h 94% 0.0 mm 44 W/m2
13:55 0.1 °C -0.8 °C 1033.5 hPa West 4.7 km/h 9.7 km/h 94% 0.0 mm 40 W/m2
14:00 0.1 °C -0.8 °C 1033.5 hPa WNW 4.7 km/h 6.4 km/h 94% 0.0 mm 42 W/m2
14:05 0.1 °C -0.8 °C 1033.5 hPa WNW 3.2 km/h 6.4 km/h 94% 0.0 mm 42 W/m2
14:10 0.1 °C -0.8 °C 1033.5 hPa NW 4.7 km/h 6.4 km/h 94% 0.0 mm 40 W/m2
14:15 0.2 °C -0.7 °C 1033.5 hPa West 4.7 km/h 9.7 km/h 94% 0.0 mm 37 W/m2
14:20 0.2 °C -0.8 °C 1033.5 hPa West 9.7 km/h 11.3 km/h 93% 0.0 mm 35 W/m2
14:25 0.2 °C -0.8 °C 1033.5 hPa West 3.2 km/h 4.8 km/h 93% 0.0 mm 28 W/m2
14:30 0.2 °C -0.7 °C 1033.5 hPa West 4.7 km/h 8 km/h 94% 0.0 mm 26 W/m2
14:35 0.2 °C -0.8 °C 1033.5 hPa WSW 6.4 km/h 6.4 km/h 93% 0.0 mm 26 W/m2
14:40 0.2 °C -0.8 °C 1033.5 hPa WNW 6.4 km/h 11.3 km/h 93% 0.0 mm 28 W/m2
14:45 0.2 °C -0.8 °C 1033.5 hPa West 3.2 km/h 9.7 km/h 93% 0.0 mm 28 W/m2
14:50 0.2 °C -0.7 °C 1033.5 hPa West 4.7 km/h 6.4 km/h 94% 0.0 mm 30 W/m2
14:55 0.3 °C -0.6 °C 1033.5 hPa WNW 4.7 km/h 6.4 km/h 94% 0.0 mm 30 W/m2
15:00 0.3 °C -0.6 °C 1033.5 hPa West 1.4 km/h 4.8 km/h 94% 0.0 mm 28 W/m2
15:05 0.3 °C -0.6 °C 1033.5 hPa West 4.7 km/h 4.8 km/h 94% 0.0 mm 26 W/m2
15:10 0.3 °C -0.6 °C 1033.5 hPa WNW 3.2 km/h 4.8 km/h 94% 0.0 mm 25 W/m2
15:15 0.3 °C -0.6 °C 1033.5 hPa WNW 4.7 km/h 6.4 km/h 94% 0.0 mm 26 W/m2
15:20 0.3 °C -0.6 °C 1033.5 hPa West 3.2 km/h 6.4 km/h 94% 0.0 mm 25 W/m2
15:25 0.3 °C -0.6 °C 1033.5 hPa WSW 3.2 km/h 6.4 km/h 94% 0.0 mm 21 W/m2
15:30 0.3 °C -0.6 °C 1033.2 hPa West 3.2 km/h 6.4 km/h 94% 0.0 mm 21 W/m2
15:35 0.3 °C -0.6 °C 1033.2 hPa Calm   1.6 km/h 94% 0.0 mm 19 W/m2
15:40 0.3 °C -0.7 °C 1033.2 hPa WNW 1.4 km/h 3.2 km/h 93% 0.0 mm 19 W/m2
15:45 0.4 °C -0.6 °C 1033.2 hPa WNW 3.2 km/h 6.4 km/h 93% 0.0 mm 19 W/m2
15:50 0.4 °C -0.6 °C 1033.2 hPa WNW 3.2 km/h 4.8 km/h 93% 0.0 mm 16 W/m2
15:55 0.4 °C -0.6 °C 1033.2 hPa WNW 3.2 km/h 6.4 km/h 93% 0.0 mm 18 W/m2
16:00 0.4 °C -0.6 °C 1033.2 hPa West 3.2 km/h 3.2 km/h 93% 0.0 mm 16 W/m2
16:05 0.3 °C -0.7 °C 1033.2 hPa West 4.7 km/h 4.8 km/h 93% 0.0 mm 16 W/m2
16:10 0.3 °C -0.7 °C 1033.2 hPa West 4.7 km/h 6.4 km/h 93% 0.0 mm 16 W/m2
16:15 0.3 °C -0.6 °C 1033.2 hPa WNW 4.7 km/h 6.4 km/h 94% 0.0 mm 12 W/m2
Juneau County Weather
Compliments of Weather Underground - 2 mb